sensor_id;sensor_type;location;lat;lon;timestamp;temperature;humidity
64855;DHT22;51321;50.428;8.378;2023-04-24T00:01:10;10.70;99.90
64855;DHT22;51321;50.428;8.378;2023-04-24T00:03:53;10.60;99.90
64855;DHT22;51321;50.428;8.378;2023-04-24T00:06:35;10.60;99.90
64855;DHT22;51321;50.428;8.378;2023-04-24T00:09:16;10.70;99.90
64855;DHT22;51321;50.428;8.378;2023-04-24T00:11:56;10.70;99.90
64855;DHT22;51321;50.428;8.378;2023-04-24T00:14:37;10.80;99.90
64855;DHT22;51321;50.428;8.378;2023-04-24T00:17:18;10.80;99.90
64855;DHT22;51321;50.428;8.378;2023-04-24T00:20:01;10.90;99.90
64855;DHT22;51321;50.428;8.378;2023-04-24T00:22:43;10.90;99.90
64855;DHT22;51321;50.428;8.378;2023-04-24T00:25:26;10.90;99.90
64855;DHT22;51321;50.428;8.378;2023-04-24T00:28:06;11.00;99.90
64855;DHT22;51321;50.428;8.378;2023-04-24T00:30:47;10.90;99.90
64855;DHT22;51321;50.428;8.378;2023-04-24T00:33:28;10.90;99.90
64855;DHT22;51321;50.428;8.378;2023-04-24T00:36:11;10.90;99.90
64855;DHT22;51321;50.428;8.378;2023-04-24T00:38:52;10.90;99.90
64855;DHT22;51321;50.428;8.378;2023-04-24T00:41:33;10.90;99.90
64855;DHT22;51321;50.428;8.378;2023-04-24T00:44:16;10.90;99.90
64855;DHT22;51321;50.428;8.378;2023-04-24T00:46:57;11.00;99.90
64855;DHT22;51321;50.428;8.378;2023-04-24T00:49:38;11.10;99.90
64855;DHT22;51321;50.428;8.378;2023-04-24T00:52:21;11.20;99.90
64855;DHT22;51321;50.428;8.378;2023-04-24T00:55:03;11.10;99.90
64855;DHT22;51321;50.428;8.378;2023-04-24T00:57:44;11.20;99.90
64855;DHT22;51321;50.428;8.378;2023-04-24T01:00:26;11.10;99.90
64855;DHT22;51321;50.428;8.378;2023-04-24T01:03:07;11.20;99.90
64855;DHT22;51321;50.428;8.378;2023-04-24T01:05:50;11.10;99.90
64855;DHT22;51321;50.428;8.378;2023-04-24T01:08:33;11.20;99.90
64855;DHT22;51321;50.428;8.378;2023-04-24T01:11:16;11.20;99.90
64855;DHT22;51321;50.428;8.378;2023-04-24T01:13:58;11.20;99.90
64855;DHT22;51321;50.428;8.378;2023-04-24T01:16:39;11.30;99.90
64855;DHT22;51321;50.428;8.378;2023-04-24T01:19:20;11.30;99.90
64855;DHT22;51321;50.428;8.378;2023-04-24T01:22:01;11.30;99.90
64855;DHT22;51321;50.428;8.378;2023-04-24T01:24:44;11.20;99.90
64855;DHT22;51321;50.428;8.378;2023-04-24T01:27:25;11.30;99.90
64855;DHT22;51321;50.428;8.378;2023-04-24T01:30:06;11.30;99.90
64855;DHT22;51321;50.428;8.378;2023-04-24T01:32:48;11.40;99.90
64855;DHT22;51321;50.428;8.378;2023-04-24T01:35:28;11.30;99.90
64855;DHT22;51321;50.428;8.378;2023-04-24T01:38:09;11.30;99.90
64855;DHT22;51321;50.428;8.378;2023-04-24T01:40:51;11.30;99.90
64855;DHT22;51321;50.428;8.378;2023-04-24T01:43:32;11.40;99.90
64855;DHT22;51321;50.428;8.378;2023-04-24T01:46:13;11.50;99.90
64855;DHT22;51321;50.428;8.378;2023-04-24T01:48:54;11.50;99.90
64855;DHT22;51321;50.428;8.378;2023-04-24T01:51:35;11.30;99.90
64855;DHT22;51321;50.428;8.378;2023-04-24T01:54:16;11.40;99.90
64855;DHT22;51321;50.428;8.378;2023-04-24T01:56:58;11.50;99.90
64855;DHT22;51321;50.428;8.378;2023-04-24T01:59:40;11.40;99.90
64855;DHT22;51321;50.428;8.378;2023-04-24T02:02:21;11.40;99.90
64855;DHT22;51321;50.428;8.378;2023-04-24T02:05:03;11.30;99.90
64855;DHT22;51321;50.428;8.378;2023-04-24T02:07:49;11.20;99.90
64855;DHT22;51321;50.428;8.378;2023-04-24T02:10:29;11.10;99.90
64855;DHT22;51321;50.428;8.378;2023-04-24T02:13:13;11.10;99.90
64855;DHT22;51321;50.428;8.378;2023-04-24T02:15:54;11.00;99.90
64855;DHT22;51321;50.428;8.378;2023-04-24T02:18:36;10.90;99.90
64855;DHT22;51321;50.428;8.378;2023-04-24T02:21:17;10.80;99.90
64855;DHT22;51321;50.428;8.378;2023-04-24T02:23:57;10.70;99.90
64855;DHT22;51321;50.428;8.378;2023-04-24T02:26:40;10.60;99.90
64855;DHT22;51321;50.428;8.378;2023-04-24T02:29:22;10.60;99.90
64855;DHT22;51321;50.428;8.378;2023-04-24T02:32:03;10.60;99.90
64855;DHT22;51321;50.428;8.378;2023-04-24T02:34:43;10.60;99.90
64855;DHT22;51321;50.428;8.378;2023-04-24T02:37:25;10.60;99.90
64855;DHT22;51321;50.428;8.378;2023-04-24T02:40:06;10.50;99.90
64855;DHT22;51321;50.428;8.378;2023-04-24T02:42:47;10.50;99.90
64855;DHT22;51321;50.428;8.378;2023-04-24T02:45:29;10.50;99.90
64855;DHT22;51321;50.428;8.378;2023-04-24T02:48:10;10.40;99.90
64855;DHT22;51321;50.428;8.378;2023-04-24T02:50:50;10.40;99.90
64855;DHT22;51321;50.428;8.378;2023-04-24T02:53:32;10.40;99.90
64855;DHT22;51321;50.428;8.378;2023-04-24T02:56:12;10.40;99.90
64855;DHT22;51321;50.428;8.378;2023-04-24T02:58:53;10.40;99.90
64855;DHT22;51321;50.428;8.378;2023-04-24T03:01:35;10.40;99.90
64855;DHT22;51321;50.428;8.378;2023-04-24T03:04:15;10.40;99.90
64855;DHT22;51321;50.428;8.378;2023-04-24T03:07:00;10.50;99.90
64855;DHT22;51321;50.428;8.378;2023-04-24T03:09:41;10.50;99.90
64855;DHT22;51321;50.428;8.378;2023-04-24T03:12:22;10.50;99.90
64855;DHT22;51321;50.428;8.378;2023-04-24T03:15:03;10.50;99.90
64855;DHT22;51321;50.428;8.378;2023-04-24T03:17:45;10.50;99.90
64855;DHT22;51321;50.428;8.378;2023-04-24T03:20:26;10.40;99.90
64855;DHT22;51321;50.428;8.378;2023-04-24T03:23:08;10.40;99.90
64855;DHT22;51321;50.428;8.378;2023-04-24T03:25:49;10.50;99.90
64855;DHT22;51321;50.428;8.378;2023-04-24T03:28:32;10.40;99.90
64855;DHT22;51321;50.428;8.378;2023-04-24T03:31:16;10.50;99.90
64855;DHT22;51321;50.428;8.378;2023-04-24T03:34:00;10.50;99.90
64855;DHT22;51321;50.428;8.378;2023-04-24T03:36:41;10.50;99.90
64855;DHT22;51321;50.428;8.378;2023-04-24T03:39:23;10.50;99.90
64855;DHT22;51321;50.428;8.378;2023-04-24T03:42:07;10.40;99.90
64855;DHT22;51321;50.428;8.378;2023-04-24T03:44:59;10.40;99.90
64855;DHT22;51321;50.428;8.378;2023-04-24T03:47:44;10.40;99.90
64855;DHT22;51321;50.428;8.378;2023-04-24T03:50:26;10.40;99.90
64855;DHT22;51321;50.428;8.378;2023-04-24T03:53:08;10.30;99.90
64855;DHT22;51321;50.428;8.378;2023-04-24T03:55:52;10.20;99.90
64855;DHT22;51321;50.428;8.378;2023-04-24T03:58:33;10.10;99.90
64855;DHT22;51321;50.428;8.378;2023-04-24T04:01:13;10.00;99.90
64855;DHT22;51321;50.428;8.378;2023-04-24T04:04:07;9.90;99.90
64855;DHT22;51321;50.428;8.378;2023-04-24T04:06:50;9.80;99.90
64855;DHT22;51321;50.428;8.378;2023-04-24T04:09:33;9.80;99.90
64855;DHT22;51321;50.428;8.378;2023-04-24T04:12:14;9.70;99.90
64855;DHT22;51321;50.428;8.378;2023-04-24T04:14:56;9.50;99.90
64855;DHT22;51321;50.428;8.378;2023-04-24T04:17:37;9.50;99.90
64855;DHT22;51321;50.428;8.378;2023-04-24T04:20:19;9.40;99.90
64855;DHT22;51321;50.428;8.378;2023-04-24T04:23:02;9.40;99.90
64855;DHT22;51321;50.428;8.378;2023-04-24T04:25:56;9.30;99.90
64855;DHT22;51321;50.428;8.378;2023-04-24T04:28:44;9.30;99.90
64855;DHT22;51321;50.428;8.378;2023-04-24T04:31:25;9.30;99.90
64855;DHT22;51321;50.428;8.378;2023-04-24T04:34:07;9.10;99.90
64855;DHT22;51321;50.428;8.378;2023-04-24T04:36:48;9.10;99.90
64855;DHT22;51321;50.428;8.378;2023-04-24T04:39:46;9.00;99.90
64855;DHT22;51321;50.428;8.378;2023-04-24T04:42:34;8.80;99.90
64855;DHT22;51321;50.428;8.378;2023-04-24T04:45:15;8.80;99.90
64855;DHT22;51321;50.428;8.378;2023-04-24T04:48:19;8.80;99.90
64855;DHT22;51321;50.428;8.378;2023-04-24T04:51:00;8.80;99.90
64855;DHT22;51321;50.428;8.378;2023-04-24T04:53:41;8.80;99.90
64855;DHT22;51321;50.428;8.378;2023-04-24T04:56:26;8.70;99.90
64855;DHT22;51321;50.428;8.378;2023-04-24T04:59:07;8.60;99.90
64855;DHT22;51321;50.428;8.378;2023-04-24T05:01:51;8.70;99.90
64855;DHT22;51321;50.428;8.378;2023-04-24T05:04:31;8.70;99.90
64855;DHT22;51321;50.428;8.378;2023-04-24T05:07:12;8.80;99.90
64855;DHT22;51321;50.428;8.378;2023-04-24T05:09:58;8.80;99.90
64855;DHT22;51321;50.428;8.378;2023-04-24T05:12:42;9.00;99.90
64855;DHT22;51321;50.428;8.378;2023-04-24T05:15:22;9.20;99.90
64855;DHT22;51321;50.428;8.378;2023-04-24T05:18:03;9.40;99.90
64855;DHT22;51321;50.428;8.378;2023-04-24T05:20:44;9.60;99.90
64855;DHT22;51321;50.428;8.378;2023-04-24T05:23:25;9.90;99.90
64855;DHT22;51321;50.428;8.378;2023-04-24T05:26:08;10.20;99.90
64855;DHT22;51321;50.428;8.378;2023-04-24T05:28:51;10.40;99.90
64855;DHT22;51321;50.428;8.378;2023-04-24T05:31:31;10.60;99.90
64855;DHT22;51321;50.428;8.378;2023-04-24T05:34:13;10.60;99.90
64855;DHT22;51321;50.428;8.378;2023-04-24T05:36:57;10.70;99.90
64855;DHT22;51321;50.428;8.378;2023-04-24T05:39:38;10.80;99.90
64855;DHT22;51321;50.428;8.378;2023-04-24T05:42:20;10.70;99.90
64855;DHT22;51321;50.428;8.378;2023-04-24T05:45:03;10.70;99.90
64855;DHT22;51321;50.428;8.378;2023-04-24T05:47:43;10.70;99.90
64855;DHT22;51321;50.428;8.378;2023-04-24T05:50:24;10.60;99.90
64855;DHT22;51321;50.428;8.378;2023-04-24T05:53:05;10.80;99.90
64855;DHT22;51321;50.428;8.378;2023-04-24T05:55:48;10.80;99.90
64855;DHT22;51321;50.428;8.378;2023-04-24T05:58:29;10.80;99.90
64855;DHT22;51321;50.428;8.378;2023-04-24T06:01:14;10.90;99.90
64855;DHT22;51321;50.428;8.378;2023-04-24T06:03:56;11.00;99.90
64855;DHT22;51321;50.428;8.378;2023-04-24T06:06:38;11.00;99.90
64855;DHT22;51321;50.428;8.378;2023-04-24T06:09:20;11.00;99.90
64855;DHT22;51321;50.428;8.378;2023-04-24T06:12:00;11.20;99.90
64855;DHT22;51321;50.428;8.378;2023-04-24T06:14:53;11.30;99.90
64855;DHT22;51321;50.428;8.378;2023-04-24T06:17:41;11.30;99.90
64855;DHT22;51321;50.428;8.378;2023-04-24T06:20:22;11.40;99.90
64855;DHT22;51321;50.428;8.378;2023-04-24T06:23:03;11.60;99.90
64855;DHT22;51321;50.428;8.378;2023-04-24T06:25:46;11.70;99.90
64855;DHT22;51321;50.428;8.378;2023-04-24T06:28:26;11.80;99.90
64855;DHT22;51321;50.428;8.378;2023-04-24T06:31:07;11.90;99.90
64855;DHT22;51321;50.428;8.378;2023-04-24T06:33:50;12.00;99.90
64855;DHT22;51321;50.428;8.378;2023-04-24T06:36:31;11.90;99.90
64855;DHT22;51321;50.428;8.378;2023-04-24T06:39:15;12.00;99.90
64855;DHT22;51321;50.428;8.378;2023-04-24T06:41:56;12.20;99.90
64855;DHT22;51321;50.428;8.378;2023-04-24T06:44:36;12.20;99.90
64855;DHT22;51321;50.428;8.378;2023-04-24T06:47:19;12.10;99.90
64855;DHT22;51321;50.428;8.378;2023-04-24T06:50:02;11.80;99.90
64855;DHT22;51321;50.428;8.378;2023-04-24T06:52:43;11.60;99.90
64855;DHT22;51321;50.428;8.378;2023-04-24T06:55:24;11.50;99.90
64855;DHT22;51321;50.428;8.378;2023-04-24T06:58:04;11.40;99.90
64855;DHT22;51321;50.428;8.378;2023-04-24T07:00:45;11.40;99.90
64855;DHT22;51321;50.428;8.378;2023-04-24T07:03:26;11.30;99.90
64855;DHT22;51321;50.428;8.378;2023-04-24T07:06:11;11.40;99.90
64855;DHT22;51321;50.428;8.378;2023-04-24T07:08:51;11.40;99.90
64855;DHT22;51321;50.428;8.378;2023-04-24T07:11:35;11.50;99.90
64855;DHT22;51321;50.428;8.378;2023-04-24T07:14:17;11.80;99.90
64855;DHT22;51321;50.428;8.378;2023-04-24T07:16:57;12.30;99.90
64855;DHT22;51321;50.428;8.378;2023-04-24T07:19:38;12.50;99.90
64855;DHT22;51321;50.428;8.378;2023-04-24T07:22:21;12.60;99.90
64855;DHT22;51321;50.428;8.378;2023-04-24T07:25:02;12.30;99.90
64855;DHT22;51321;50.428;8.378;2023-04-24T07:27:44;12.30;99.90
64855;DHT22;51321;50.428;8.378;2023-04-24T07:30:25;12.50;99.90
64855;DHT22;51321;50.428;8.378;2023-04-24T07:33:08;12.90;99.90
64855;DHT22;51321;50.428;8.378;2023-04-24T07:35:52;13.00;99.90
64855;DHT22;51321;50.428;8.378;2023-04-24T07:38:34;12.80;99.90
64855;DHT22;51321;50.428;8.378;2023-04-24T07:41:15;12.60;99.90
64855;DHT22;51321;50.428;8.378;2023-04-24T07:43:56;12.60;99.90
64855;DHT22;51321;50.428;8.378;2023-04-24T07:46:36;13.00;99.90
64855;DHT22;51321;50.428;8.378;2023-04-24T07:49:17;13.00;99.90
64855;DHT22;51321;50.428;8.378;2023-04-24T07:51:58;13.20;99.90
64855;DHT22;51321;50.428;8.378;2023-04-24T07:54:42;13.60;99.90
64855;DHT22;51321;50.428;8.378;2023-04-24T07:57:23;13.80;99.90
64855;DHT22;51321;50.428;8.378;2023-04-24T08:00:04;13.70;99.90
64855;DHT22;51321;50.428;8.378;2023-04-24T08:02:50;13.90;99.90
64855;DHT22;51321;50.428;8.378;2023-04-24T08:05:31;13.80;99.90
64855;DHT22;51321;50.428;8.378;2023-04-24T08:08:11;13.70;99.90
64855;DHT22;51321;50.428;8.378;2023-04-24T08:10:55;13.30;99.90
64855;DHT22;51321;50.428;8.378;2023-04-24T08:13:35;12.90;99.90
64855;DHT22;51321;50.428;8.378;2023-04-24T08:16:16;12.70;99.90
64855;DHT22;51321;50.428;8.378;2023-04-24T08:18:57;12.40;99.90
64855;DHT22;51321;50.428;8.378;2023-04-24T08:21:38;12.20;99.90
64855;DHT22;51321;50.428;8.378;2023-04-24T08:24:18;12.00;99.90
64855;DHT22;51321;50.428;8.378;2023-04-24T08:27:01;12.10;99.90
64855;DHT22;51321;50.428;8.378;2023-04-24T08:29:44;11.90;99.90
64855;DHT22;51321;50.428;8.378;2023-04-24T08:32:25;11.90;99.90
64855;DHT22;51321;50.428;8.378;2023-04-24T08:35:08;11.80;99.90
64855;DHT22;51321;50.428;8.378;2023-04-24T08:37:49;11.60;99.90
64855;DHT22;51321;50.428;8.378;2023-04-24T08:40:30;11.50;99.90
64855;DHT22;51321;50.428;8.378;2023-04-24T08:43:15;11.40;99.90
64855;DHT22;51321;50.428;8.378;2023-04-24T08:45:55;11.40;99.90
64855;DHT22;51321;50.428;8.378;2023-04-24T08:48:36;11.30;99.90
64855;DHT22;51321;50.428;8.378;2023-04-24T08:51:18;11.40;99.90
64855;DHT22;51321;50.428;8.378;2023-04-24T08:54:00;11.40;99.90
64855;DHT22;51321;50.428;8.378;2023-04-24T08:56:43;11.40;99.90
64855;DHT22;51321;50.428;8.378;2023-04-24T08:59:26;11.40;99.90
64855;DHT22;51321;50.428;8.378;2023-04-24T09:02:08;11.40;99.90
64855;DHT22;51321;50.428;8.378;2023-04-24T09:04:50;11.30;99.90
64855;DHT22;51321;50.428;8.378;2023-04-24T09:07:31;11.30;99.90
64855;DHT22;51321;50.428;8.378;2023-04-24T09:10:17;11.40;99.90
64855;DHT22;51321;50.428;8.378;2023-04-24T09:12:59;11.50;99.90
64855;DHT22;51321;50.428;8.378;2023-04-24T09:15:43;11.80;99.90
64855;DHT22;51321;50.428;8.378;2023-04-24T09:18:23;12.00;99.90
64855;DHT22;51321;50.428;8.378;2023-04-24T09:21:06;11.90;99.90
64855;DHT22;51321;50.428;8.378;2023-04-24T09:23:48;11.90;99.90
64855;DHT22;51321;50.428;8.378;2023-04-24T09:26:37;11.90;99.90
64855;DHT22;51321;50.428;8.378;2023-04-24T09:29:18;11.90;99.90
64855;DHT22;51321;50.428;8.378;2023-04-24T09:32:01;11.90;99.90
64855;DHT22;51321;50.428;8.378;2023-04-24T09:35:08;12.00;99.90
64855;DHT22;51321;50.428;8.378;2023-04-24T09:37:49;12.10;99.90
64855;DHT22;51321;50.428;8.378;2023-04-24T09:40:29;12.30;99.90
64855;DHT22;51321;50.428;8.378;2023-04-24T09:43:13;12.50;99.90
64855;DHT22;51321;50.428;8.378;2023-04-24T09:45:55;12.70;99.90
64855;DHT22;51321;50.428;8.378;2023-04-24T09:48:38;12.90;99.90
64855;DHT22;51321;50.428;8.378;2023-04-24T09:51:19;13.10;99.90
64855;DHT22;51321;50.428;8.378;2023-04-24T09:54:14;13.20;99.90
64855;DHT22;51321;50.428;8.378;2023-04-24T09:56:55;13.00;99.90
64855;DHT22;51321;50.428;8.378;2023-04-24T09:59:38;12.80;99.90
64855;DHT22;51321;50.428;8.378;2023-04-24T10:02:22;12.90;99.90
64855;DHT22;51321;50.428;8.378;2023-04-24T10:05:04;12.80;99.90
64855;DHT22;51321;50.428;8.378;2023-04-24T10:07:45;12.50;99.90
64855;DHT22;51321;50.428;8.378;2023-04-24T10:10:25;12.20;99.90
64855;DHT22;51321;50.428;8.378;2023-04-24T10:13:07;11.90;99.90
64855;DHT22;51321;50.428;8.378;2023-04-24T10:15:48;11.80;99.90
64855;DHT22;51321;50.428;8.378;2023-04-24T10:18:29;11.80;99.90
64855;DHT22;51321;50.428;8.378;2023-04-24T10:21:13;11.90;99.90
64855;DHT22;51321;50.428;8.378;2023-04-24T10:23:54;12.00;99.90
64855;DHT22;51321;50.428;8.378;2023-04-24T10:26:35;11.70;99.90
64855;DHT22;51321;50.428;8.378;2023-04-24T10:29:17;11.40;99.90
64855;DHT22;51321;50.428;8.378;2023-04-24T10:31:57;11.30;99.90
64855;DHT22;51321;50.428;8.378;2023-04-24T10:34:38;11.20;99.90
64855;DHT22;51321;50.428;8.378;2023-04-24T10:37:20;11.00;99.90
64855;DHT22;51321;50.428;8.378;2023-04-24T10:40:01;11.00;99.90
64855;DHT22;51321;50.428;8.378;2023-04-24T10:42:43;11.10;99.90
64855;DHT22;51321;50.428;8.378;2023-04-24T10:45:27;11.20;99.90
64855;DHT22;51321;50.428;8.378;2023-04-24T10:48:08;11.30;99.90
64855;DHT22;51321;50.428;8.378;2023-04-24T10:50:52;11.50;99.90
64855;DHT22;51321;50.428;8.378;2023-04-24T10:53:35;11.80;99.90
64855;DHT22;51321;50.428;8.378;2023-04-24T10:56:16;12.30;99.90
64855;DHT22;51321;50.428;8.378;2023-04-24T10:58:57;12.70;99.90
64855;DHT22;51321;50.428;8.378;2023-04-24T11:01:38;12.90;99.90
64855;DHT22;51321;50.428;8.378;2023-04-24T11:04:22;13.20;99.90
64855;DHT22;51321;50.428;8.378;2023-04-24T11:07:09;13.50;99.90
64855;DHT22;51321;50.428;8.378;2023-04-24T11:09:52;13.90;99.90
64855;DHT22;51321;50.428;8.378;2023-04-24T11:12:40;14.00;99.90
64855;DHT22;51321;50.428;8.378;2023-04-24T11:15:20;13.80;99.90
64855;DHT22;51321;50.428;8.378;2023-04-24T11:18:01;13.80;99.90
64855;DHT22;51321;50.428;8.378;2023-04-24T11:20:42;13.90;99.90
64855;DHT22;51321;50.428;8.378;2023-04-24T11:23:22;14.00;99.90
64855;DHT22;51321;50.428;8.378;2023-04-24T11:26:11;14.30;99.90
64855;DHT22;51321;50.428;8.378;2023-04-24T11:28:53;14.40;99.90
64855;DHT22;51321;50.428;8.378;2023-04-24T11:31:34;13.90;99.90
64855;DHT22;51321;50.428;8.378;2023-04-24T11:34:15;13.50;99.90
64855;DHT22;51321;50.428;8.378;2023-04-24T11:36:56;13.30;99.90
64855;DHT22;51321;50.428;8.378;2023-04-24T11:39:37;13.10;99.90
64855;DHT22;51321;50.428;8.378;2023-04-24T11:42:20;13.00;99.90
64855;DHT22;51321;50.428;8.378;2023-04-24T11:45:01;13.00;99.90
64855;DHT22;51321;50.428;8.378;2023-04-24T11:47:42;13.00;99.90
64855;DHT22;51321;50.428;8.378;2023-04-24T11:50:24;13.50;99.90
64855;DHT22;51321;50.428;8.378;2023-04-24T11:53:06;13.60;99.90
64855;DHT22;51321;50.428;8.378;2023-04-24T11:55:48;13.80;99.90
64855;DHT22;51321;50.428;8.378;2023-04-24T11:58:34;14.00;99.90
64855;DHT22;51321;50.428;8.378;2023-04-24T12:01:15;13.80;99.90
64855;DHT22;51321;50.428;8.378;2023-04-24T12:03:59;13.70;99.90
64855;DHT22;51321;50.428;8.378;2023-04-24T12:06:39;13.40;99.90
64855;DHT22;51321;50.428;8.378;2023-04-24T12:09:20;12.60;99.90
64855;DHT22;51321;50.428;8.378;2023-04-24T12:12:00;11.90;99.90
64855;DHT22;51321;50.428;8.378;2023-04-24T12:14:43;11.40;99.90
64855;DHT22;51321;50.428;8.378;2023-04-24T12:17:24;11.10;99.90
64855;DHT22;51321;50.428;8.378;2023-04-24T12:20:06;11.10;99.90
64855;DHT22;51321;50.428;8.378;2023-04-24T12:22:49;11.30;99.90
64855;DHT22;51321;50.428;8.378;2023-04-24T12:25:32;11.40;99.90
64855;DHT22;51321;50.428;8.378;2023-04-24T12:28:14;11.50;99.90
64855;DHT22;51321;50.428;8.378;2023-04-24T12:30:56;11.50;99.90
64855;DHT22;51321;50.428;8.378;2023-04-24T12:33:37;11.90;99.90
64855;DHT22;51321;50.428;8.378;2023-04-24T12:36:18;12.10;99.90
64855;DHT22;51321;50.428;8.378;2023-04-24T12:39:01;12.00;99.90
64855;DHT22;51321;50.428;8.378;2023-04-24T12:41:50;12.00;99.90
64855;DHT22;51321;50.428;8.378;2023-04-24T12:44:31;12.10;99.90
64855;DHT22;51321;50.428;8.378;2023-04-24T12:47:15;12.00;99.90
64855;DHT22;51321;50.428;8.378;2023-04-24T12:49:55;12.20;99.90
64855;DHT22;51321;50.428;8.378;2023-04-24T12:52:36;12.40;99.90
64855;DHT22;51321;50.428;8.378;2023-04-24T12:55:18;12.60;99.90
64855;DHT22;51321;50.428;8.378;2023-04-24T12:57:59;13.00;99.90
64855;DHT22;51321;50.428;8.378;2023-04-24T13:00:41;13.10;99.90
64855;DHT22;51321;50.428;8.378;2023-04-24T13:03:24;13.30;99.90
64855;DHT22;51321;50.428;8.378;2023-04-24T13:06:04;13.50;99.90
64855;DHT22;51321;50.428;8.378;2023-04-24T13:08:45;14.10;99.90
64855;DHT22;51321;50.428;8.378;2023-04-24T13:11:26;14.20;99.90
64855;DHT22;51321;50.428;8.378;2023-04-24T13:14:07;14.40;99.90
64855;DHT22;51321;50.428;8.378;2023-04-24T13:16:47;14.50;99.90
64855;DHT22;51321;50.428;8.378;2023-04-24T13:19:34;14.20;99.90
64855;DHT22;51321;50.428;8.378;2023-04-24T13:22:15;13.60;99.90
64855;DHT22;51321;50.428;8.378;2023-04-24T13:24:57;13.30;99.90
64855;DHT22;51321;50.428;8.378;2023-04-24T13:27:39;13.10;99.90
64855;DHT22;51321;50.428;8.378;2023-04-24T13:30:19;13.10;99.90
64855;DHT22;51321;50.428;8.378;2023-04-24T13:32:59;12.90;99.90
64855;DHT22;51321;50.428;8.378;2023-04-24T13:35:42;12.80;99.90
64855;DHT22;51321;50.428;8.378;2023-04-24T13:38:22;12.70;99.90
64855;DHT22;51321;50.428;8.378;2023-04-24T13:41:03;12.70;99.90
64855;DHT22;51321;50.428;8.378;2023-04-24T13:43:44;12.70;99.90
64855;DHT22;51321;50.428;8.378;2023-04-24T13:46:24;12.90;99.90
64855;DHT22;51321;50.428;8.378;2023-04-24T13:49:05;13.00;99.90
64855;DHT22;51321;50.428;8.378;2023-04-24T13:51:48;13.20;99.90
64855;DHT22;51321;50.428;8.378;2023-04-24T13:54:29;13.60;99.90
64855;DHT22;51321;50.428;8.378;2023-04-24T13:57:10;14.00;99.90
64855;DHT22;51321;50.428;8.378;2023-04-24T13:59:52;14.00;99.90
64855;DHT22;51321;50.428;8.378;2023-04-24T14:02:32;13.90;99.90
64855;DHT22;51321;50.428;8.378;2023-04-24T14:05:14;13.90;99.90
64855;DHT22;51321;50.428;8.378;2023-04-24T14:07:56;14.30;99.90
64855;DHT22;51321;50.428;8.378;2023-04-24T14:10:37;14.30;99.90
64855;DHT22;51321;50.428;8.378;2023-04-24T14:13:18;14.40;99.90
64855;DHT22;51321;50.428;8.378;2023-04-24T14:15:59;14.40;99.90
64855;DHT22;51321;50.428;8.378;2023-04-24T14:18:40;14.10;99.90
64855;DHT22;51321;50.428;8.378;2023-04-24T14:21:21;13.90;99.90
64855;DHT22;51321;50.428;8.378;2023-04-24T14:24:03;13.70;99.90
64855;DHT22;51321;50.428;8.378;2023-04-24T14:26:44;13.60;99.90
64855;DHT22;51321;50.428;8.378;2023-04-24T14:29:24;13.40;99.90
64855;DHT22;51321;50.428;8.378;2023-04-24T14:32:05;13.30;99.90
64855;DHT22;51321;50.428;8.378;2023-04-24T14:34:48;13.20;99.90
64855;DHT22;51321;50.428;8.378;2023-04-24T14:37:28;13.10;99.90
64855;DHT22;51321;50.428;8.378;2023-04-24T14:40:11;13.00;99.90
64855;DHT22;51321;50.428;8.378;2023-04-24T14:42:52;13.00;99.90
64855;DHT22;51321;50.428;8.378;2023-04-24T14:45:36;13.10;99.90
64855;DHT22;51321;50.428;8.378;2023-04-24T14:48:16;13.50;99.90
64855;DHT22;51321;50.428;8.378;2023-04-24T14:50:58;13.80;99.90
64855;DHT22;51321;50.428;8.378;2023-04-24T14:53:38;14.00;99.90
64855;DHT22;51321;50.428;8.378;2023-04-24T14:56:20;14.20;99.90
64855;DHT22;51321;50.428;8.378;2023-04-24T14:59:01;13.90;99.90
64855;DHT22;51321;50.428;8.378;2023-04-24T15:01:42;13.80;99.90
64855;DHT22;51321;50.428;8.378;2023-04-24T15:04:24;13.80;99.90
64855;DHT22;51321;50.428;8.378;2023-04-24T15:07:05;14.00;99.90
64855;DHT22;51321;50.428;8.378;2023-04-24T15:09:45;14.60;99.90
64855;DHT22;51321;50.428;8.378;2023-04-24T15:12:28;15.20;99.90
64855;DHT22;51321;50.428;8.378;2023-04-24T15:15:09;15.30;99.90
64855;DHT22;51321;50.428;8.378;2023-04-24T15:17:50;15.10;99.90
64855;DHT22;51321;50.428;8.378;2023-04-24T15:20:33;14.80;99.90
64855;DHT22;51321;50.428;8.378;2023-04-24T15:23:14;14.80;99.90
64855;DHT22;51321;50.428;8.378;2023-04-24T15:25:54;14.80;99.90
64855;DHT22;51321;50.428;8.378;2023-04-24T15:28:37;14.40;99.90
64855;DHT22;51321;50.428;8.378;2023-04-24T15:31:17;14.00;99.90
64855;DHT22;51321;50.428;8.378;2023-04-24T15:33:58;13.90;99.90
64855;DHT22;51321;50.428;8.378;2023-04-24T15:36:38;13.60;99.90
64855;DHT22;51321;50.428;8.378;2023-04-24T15:39:20;13.30;99.90
64855;DHT22;51321;50.428;8.378;2023-04-24T15:42:02;13.10;99.90
64855;DHT22;51321;50.428;8.378;2023-04-24T15:44:44;12.90;99.90
64855;DHT22;51321;50.428;8.378;2023-04-24T15:47:25;12.80;99.90
64855;DHT22;51321;50.428;8.378;2023-04-24T15:50:06;12.70;99.90
64855;DHT22;51321;50.428;8.378;2023-04-24T15:52:49;12.80;99.90
64855;DHT22;51321;50.428;8.378;2023-04-24T15:55:29;12.90;99.90
64855;DHT22;51321;50.428;8.378;2023-04-24T15:58:10;12.80;99.90
64855;DHT22;51321;50.428;8.378;2023-04-24T16:00:52;12.90;99.90
64855;DHT22;51321;50.428;8.378;2023-04-24T16:03:33;13.00;99.90
64855;DHT22;51321;50.428;8.378;2023-04-24T16:06:14;12.90;99.90
64855;DHT22;51321;50.428;8.378;2023-04-24T16:08:54;12.90;99.90
64855;DHT22;51321;50.428;8.378;2023-04-24T16:11:34;12.70;99.90
64855;DHT22;51321;50.428;8.378;2023-04-24T16:14:17;12.50;99.90
64855;DHT22;51321;50.428;8.378;2023-04-24T16:16:59;12.50;99.90
64855;DHT22;51321;50.428;8.378;2023-04-24T16:19:41;12.30;99.90
64855;DHT22;51321;50.428;8.378;2023-04-24T16:22:22;12.30;99.90
64855;DHT22;51321;50.428;8.378;2023-04-24T16:25:02;12.30;99.90
64855;DHT22;51321;50.428;8.378;2023-04-24T16:27:44;12.20;99.90
64855;DHT22;51321;50.428;8.378;2023-04-24T16:30:26;12.00;99.90
64855;DHT22;51321;50.428;8.378;2023-04-24T16:33:09;12.10;99.90
64855;DHT22;51321;50.428;8.378;2023-04-24T16:35:49;12.10;99.90
64855;DHT22;51321;50.428;8.378;2023-04-24T16:38:30;12.20;99.90
64855;DHT22;51321;50.428;8.378;2023-04-24T16:41:12;12.30;99.90
64855;DHT22;51321;50.428;8.378;2023-04-24T16:43:53;12.50;99.90
64855;DHT22;51321;50.428;8.378;2023-04-24T16:46:34;12.60;99.90
64855;DHT22;51321;50.428;8.378;2023-04-24T16:49:16;12.50;99.90
64855;DHT22;51321;50.428;8.378;2023-04-24T16:51:57;12.50;99.90
64855;DHT22;51321;50.428;8.378;2023-04-24T16:54:38;12.20;99.90
64855;DHT22;51321;50.428;8.378;2023-04-24T16:57:18;12.10;99.90
64855;DHT22;51321;50.428;8.378;2023-04-24T16:59:59;12.00;99.90
64855;DHT22;51321;50.428;8.378;2023-04-24T17:02:40;11.90;99.90
64855;DHT22;51321;50.428;8.378;2023-04-24T17:05:24;11.80;99.90